Henri — WDF2420 — position and weather

sailwx.info

Track history (hours):
 
Tides and Currents Weather Stations Pressure Air Temp Water Temp Dewpoint Dewpoint Depression Visibility Wind Speed Wind Dir Waves Ship Positions

Henri

Owner: Enterprise Marine Services, LLC, San Antonio, TX. More information available from US FCC via Universal Licensing System and Coast Guard Vessel Documentation Center.

Last reported at 2018-Feb-12 23:22 UTC. Time now 2018-Feb-21 19:19 UTC.
Position N 29°34' W 090°30'.
Warning: this ship's position is 8 days out of date.

Length 26 m; draft 3 m.

Type: Tug. MMSI: 367003390.

Date/timePositionNaut miles runAvg speedWind from/ knotsBaromVisibWave heightAir tempDewpointWater temp
2018-Feb-12 23:22N 29°34' W 090°30'2 5.0
2018-Feb-12 23:00N 29°34' W 090°32'3 4.7
2018-Feb-12 22:28N 29°35' W 090°35'2 3.9
2018-Feb-12 22:00N 29°35' W 090°37'2 4.8
2018-Feb-12 21:31N 29°36' W 090°39'1 1.5
2018-Feb-12 21:00N 29°36' W 090°40'0 0.0
2018-Feb-12 20:30N 29°36' W 090°40'0 0.0
2018-Feb-12 20:01N 29°36' W 090°40'0 0.0
2018-Feb-12 19:31N 29°36' W 090°40'0 0.0
2018-Feb-12 19:00N 29°36' W 090°40'0 0.0
2018-Feb-12 18:31N 29°36' W 090°40'0 0.0
2018-Feb-12 18:01N 29°36' W 090°40'0 0.0
2018-Feb-12 17:30N 29°36' W 090°40'0 0.0
2018-Feb-12 17:01N 29°36' W 090°40'0 0.0
2018-Feb-12 16:31N 29°36' W 090°40'1 2.3
2018-Feb-12 16:01N 29°37' W 090°41'0 0.9
2018-Feb-12 15:30N 29°37' W 090°42'0 0.0
2018-Feb-12 15:00N 29°37' W 090°42'0 0.0
2018-Feb-12 14:31N 29°37' W 090°42'0 0.0
2018-Feb-12 14:00N 29°37' W 090°42'0 0.0
2018-Feb-12 13:31N 29°37' W 090°42'0 0.0
2018-Feb-12 13:00N 29°37' W 090°42'0 0.0
2018-Feb-12 12:30N 29°37' W 090°42'0 0.0
2018-Feb-12 12:00N 29°37' W 090°42'0 0.0
2018-Feb-12 11:30N 29°37' W 090°42'0 0.1
2018-Feb-12 11:00N 29°37' W 090°42'0 0.2
2018-Feb-12 10:30N 29°37' W 090°42'0 0.0
2018-Feb-12 10:00N 29°37' W 090°42'0 0.0
2018-Feb-12 09:30N 29°37' W 090°42'0 0.3
2018-Feb-12 09:00N 29°37' W 090°42'0 0.0
2018-Feb-12 08:30N 29°37' W 090°42'0 0.0
2018-Feb-12 08:01N 29°37' W 090°42'0 0.0
2018-Feb-12 07:30N 29°37' W 090°42'0 0.0
2018-Feb-12 07:00N 29°37' W 090°42'0 0.0
2018-Feb-12 06:30N 29°37' W 090°42'0 0.0
2018-Feb-12 06:00N 29°37' W 090°42'0 0.0
2018-Feb-12 05:30N 29°37' W 090°42'0 0.0
2018-Feb-12 05:00N 29°37' W 090°42'0 0.0
2018-Feb-12 04:30N 29°37' W 090°42'0 0.0
2018-Feb-12 04:00N 29°37' W 090°42'0 0.0
2018-Feb-12 03:31N 29°37' W 090°42'0 0.1
2018-Feb-12 03:00N 29°37' W 090°42'1 1.1
2018-Feb-12 02:30N 29°37' W 090°42'2 4.3
2018-Feb-12 02:00N 29°35' W 090°43'2 3.6
2018-Feb-12 01:31N 29°34' W 090°45'1 1.3
2018-Feb-12 01:00N 29°33' W 090°45'1 1.4
2018-Feb-12 00:30N 29°32' W 090°46'3 5.7
2018-Feb-12 00:00N 29°32' W 090°49'  
2018-Feb-09 04:30N 29°32' W 090°46'3 5.2
2018-Feb-09 04:00N 29°34' W 090°43'2 4.5
2018-Feb-09 03:30N 29°36' W 090°43'1 2.1
2018-Feb-09 03:00N 29°37' W 090°42'0 0.0
2018-Feb-09 02:30N 29°37' W 090°42'4 3.9
2018-Feb-09 01:30N 29°35' W 090°38'  
Track history (hours):
 
Tides and Currents Weather Stations Pressure Air Temp Water Temp Dewpoint Dewpoint Depression Visibility Wind Speed Wind Dir Waves Ship Positions

Henri

Owner: Enterprise Marine Services, LLC, San Antonio, TX. More information available from US FCC via Universal Licensing System and Coast Guard Vessel Documentation Center.

Last reported at 2018-Feb-12 23:22 UTC. Time now 2018-Feb-21 19:19 UTC.
Position N 29°34' W 090°30'.
Warning: this ship's position is 8 days out of date.

Length 26 m; draft 3 m.

Type: Tug. MMSI: 367003390.

Date/timePositionNaut miles runAvg speedWind from/ knotsBaromVisibWave heightAir tempDewpointWater temp
2018-Feb-12 23:22N 29°34' W 090°30'2 5.0
2018-Feb-12 23:00N 29°34' W 090°32'3 4.7
2018-Feb-12 22:28N 29°35' W 090°35'2 3.9
2018-Feb-12 22:00N 29°35' W 090°37'2 4.8
2018-Feb-12 21:31N 29°36' W 090°39'1 1.5
2018-Feb-12 21:00N 29°36' W 090°40'0 0.0
2018-Feb-12 20:30N 29°36' W 090°40'0 0.0
2018-Feb-12 20:01N 29°36' W 090°40'0 0.0
2018-Feb-12 19:31N 29°36' W 090°40'0 0.0
2018-Feb-12 19:00N 29°36' W 090°40'0 0.0
2018-Feb-12 18:31N 29°36' W 090°40'0 0.0
2018-Feb-12 18:01N 29°36' W 090°40'0 0.0
2018-Feb-12 17:30N 29°36' W 090°40'0 0.0
2018-Feb-12 17:01N 29°36' W 090°40'0 0.0
2018-Feb-12 16:31N 29°36' W 090°40'1 2.3
2018-Feb-12 16:01N 29°37' W 090°41'0 0.9
2018-Feb-12 15:30N 29°37' W 090°42'0 0.0
2018-Feb-12 15:00N 29°37' W 090°42'0 0.0
2018-Feb-12 14:31N 29°37' W 090°42'0 0.0
2018-Feb-12 14:00N 29°37' W 090°42'0 0.0
2018-Feb-12 13:31N 29°37' W 090°42'0 0.0
2018-Feb-12 13:00N 29°37' W 090°42'0 0.0
2018-Feb-12 12:30N 29°37' W 090°42'0 0.0
2018-Feb-12 12:00N 29°37' W 090°42'0 0.0
2018-Feb-12 11:30N 29°37' W 090°42'0 0.1
2018-Feb-12 11:00N 29°37' W 090°42'0 0.2
2018-Feb-12 10:30N 29°37' W 090°42'0 0.0
2018-Feb-12 10:00N 29°37' W 090°42'0 0.0
2018-Feb-12 09:30N 29°37' W 090°42'0 0.3
2018-Feb-12 09:00N 29°37' W 090°42'0 0.0
2018-Feb-12 08:30N 29°37' W 090°42'0 0.0
2018-Feb-12 08:01N 29°37' W 090°42'0 0.0
2018-Feb-12 07:30N 29°37' W 090°42'0 0.0
2018-Feb-12 07:00N 29°37' W 090°42'0 0.0
2018-Feb-12 06:30N 29°37' W 090°42'0 0.0
2018-Feb-12 06:00N 29°37' W 090°42'0 0.0
2018-Feb-12 05:30N 29°37' W 090°42'0 0.0
2018-Feb-12 05:00N 29°37' W 090°42'0 0.0
2018-Feb-12 04:30N 29°37' W 090°42'0 0.0
2018-Feb-12 04:00N 29°37' W 090°42'0 0.0
2018-Feb-12 03:31N 29°37' W 090°42'0 0.1
2018-Feb-12 03:00N 29°37' W 090°42'1 1.1
2018-Feb-12 02:30N 29°37' W 090°42'2 4.3
2018-Feb-12 02:00N 29°35' W 090°43'2 3.6
2018-Feb-12 01:31N 29°34' W 090°45'1 1.3
2018-Feb-12 01:00N 29°33' W 090°45'1 1.4
2018-Feb-12 00:30N 29°32' W 090°46'3 5.7
2018-Feb-12 00:00N 29°32' W 090°49'  
2018-Feb-09 04:30N 29°32' W 090°46'3 5.2
2018-Feb-09 04:00N 29°34' W 090°43'2 4.5
2018-Feb-09 03:30N 29°36' W 090°43'1 2.1
2018-Feb-09 03:00N 29°37' W 090°42'0 0.0
2018-Feb-09 02:30N 29°37' W 090°42'4 3.9
2018-Feb-09 01:30N 29°35' W 090°38'  

Dump ship's entire track history